下地島の過去48時間の天気

下地島 (Shimojishima)

現在時刻: 5/29 08:44 JST (5/28 23:44 UTC) 以下の時間は現地時間です。

過去48時間のMETAR気象情報
時間 風向 風速(m/s) 視程 気温(℃) 湿度(%) 気圧(hPa) 天気現象
29 08:00 4 10km以上 27 100 1007
29 07:00 4 10km以上 27 94 1007
28 19:00 南南西 3 10km以上 27 94 1007
28 18:00 南南西 4 10km以上 28 94 1006
28 17:00 南南西 3 10km以上 29 89 1006 周辺でしゅう雨
28 16:00 南南西 4 10km以上 29 89 1006
28 15:00 南西 4 10km以上 29 89 1006
28 14:00 南西 4 10km以上 29 89 1006
28 13:00 南西 5 10km以上 29 89 1006
28 12:00 南西 4 10km以上 29 89 1007
28 11:00 南西 4 10km以上 29 89 1007
28 10:00 西南西 5 7000m 27 94 1007 弱いしゅう雨
28 09:00 南西 4 7000m 27 94 1007
28 08:00 南西 5 7000m 26 100 1006 周辺でしゅう雨
28 07:20 南西 6 7000m 26 100 1005 弱い雷雨
28 07:00 西南西 3 7000m 26 94 1005 雷雨
28 06:33 西 5 800m 25 100 1005 強い雷雨
27 19:00 5 10km以上 24 94 1006 弱いしゅう雨
27 18:00 6 10km以上 24 94 1005 弱い雨
27 17:30 6 10km以上 24 94 1005
27 17:00 東北東 7 10km以上 24 100 1005 弱いしゅう雨
27 16:22 北東 5 10km以上 25 94 1005 弱いしゅう雨
27 16:00 東北東 5 6000m 25 94 1005 弱いしゅう雨
27 15:26 北東 5 10km以上 25 94 1005 弱いしゅう雨
27 15:00 北東 6 10km以上 25 94 1006 弱いしゅう雨
27 14:35 北北東 6 10km以上 25 94 1006 周辺でしゅう雨
27 14:00 北北東 5 6000m 25 94 1006 弱いしゅう雨
27 13:43 北北東 6 3000m 25 94 1006 しゅう雨 もや
27 13:00 北北東 5 10km以上 26 89 1005 弱い雨
27 12:00 北北東 5 10km以上 26 89 1006 弱いしゅう雨
27 11:00 北北東 5 10km以上 26 89 1006 周辺でしゅう雨
27 10:00 北北東 4 10km以上 26 94 1005
27 09:00 北北東 3 10km以上 26 94 1005 弱いしゅう雨
RORS 282300Z 18008KT 9999 FEW003 SCT013 27/27 Q1007
RORS 282200Z 18008KT 150V210 9999 FEW003 BKN/// 27/26 Q1007
RORS 281000Z 20006KT 170V240 9999 FEW011 FEW020CB SCT150 BKN/// 27/26 Q1007
RORS 280900Z 20008KT 9999 FEW010 FEW020CB SCT160 BKN/// 28/27 Q1006
RORS 280800Z 21006KT 180V250 9999 VCSH FEW010 SCT/// 29/27 Q1006
RORS 280700Z 21007KT 150V260 9999 FEW010 BKN/// 29/27 Q1006
RORS 280600Z 22007KT 180V270 9999 FEW015 SCT043 29/27 Q1006
RORS 280500Z 22008KT 180V240 9999 FEW010 SCT/// 29/27 Q1006
RORS 280400Z 22010KT 180V240 9999 FEW007 BKN/// 29/27 Q1006
RORS 280300Z 23007KT 180V290 9999 FEW007 BKN/// 29/27 Q1007
RORS 280200Z 23007KT 180V280 9999 FEW010 SCT080 BKN/// 29/27 Q1007
RORS 280100Z 24009KT 170V280 7000 -SHRA FEW009 SCT011 BKN080 27/26 Q1007
RORS 280000Z 22007KT 180V260 7000 FEW010 BKN050 27/26 Q1007
RORS 272300Z 23009KT 190V260 7000 VCSH FEW011 FEW020CB SCT050 BKN100 26/26 Q1006
RORS 272220Z 22011KT 190V250 7000 -TSRA FEW005 BKN011 FEW020CB BKN040 26/26 Q1005 RMK 1ST005 5CU011 2CB020 6SC040 A2969 FBL TS 8KM NE MOV NE
RORS 272200Z 25006KT 190V300 7000 TSRA FEW003 BKN008 BKN010 FEW020CB 26/25 Q1005
RORS 272133Z 28010KT 220V330 0800 R35/0550V1200N +TSRA SCT003 BKN005 SCT020CB 25/25 Q1005 RMK 3ST003 6ST005 3CB020 A2969 MOD TS OHD MOV NE RI++
RORS 271000Z 08010KT 9999 -SHRA FEW005 SCT007 BKN015 24/23 Q1006
RORS 270900Z 08012KT 9999 -RA SCT005 SCT007 BKN045 24/23 Q1005
RORS 270830Z 08011KT 9999 FEW005 SCT007 BKN040 24/23 Q1005 RMK 2ST005 4ST007 6SC040 A2970
RORS 270800Z 06013KT 9999 -SHRA SCT003 BKN005 BKN040 24/24 Q1005
RORS 270722Z 05010KT 9999 -SHRA SCT004 BKN007 BKN025 25/24 Q1005 RMK 3ST004 5ST007 6CU025 A2969
RORS 270700Z 07010KT 6000 -SHRA FEW006 SCT008 BKN025 25/24 Q1005
RORS 270626Z 04010KT 9999 -SHRA FEW006 SCT008 BKN030 25/24 Q1005 RMK 1ST006 3ST008 5CU030 A2970
RORS 270600Z 04012KT 9999 -SHRA SCT005 BKN007 BKN010 25/24 Q1006
RORS 270535Z 03011KT 9999 VCSH SCT005 BKN007 BKN025 25/24 Q1006 RMK 3ST005 5ST007 6CU025 A2971
RORS 270500Z 03010KT 6000 -SHRA FEW005 SCT007 BKN015 FEW020CB 25/24 Q1006
RORS 270443Z 03012KT 3000 R35/1200VP2000D SHRA BR FEW006 SCT008 BKN010 25/24 Q1006 RMK 2ST006 4ST008 6CU010 A2971
RORS 270400Z 03010KT 9999 -RA FEW007 SCT009 BKN049 26/24 Q1005
RORS 270300Z 03009KT 9999 -SHRA FEW007 SCT008 BKN025 26/24 Q1006
RORS 270200Z 02009KT 9999 VCSH FEW007 BKN021 BKN050 26/24 Q1006
RORS 270100Z 03008KT 9999 FEW006 BKN010 26/25 Q1005
RORS 270000Z 03006KT 9999 -SHRA FEW008 BKN011 FEW020CB BKN150 26/25 Q1005